Time;durP1;ratioP1;P1;durP2;ratioP2;P2;SDS_P1;SDS_P2;PMS_P1;PMS_P2;Temp;Humidity;BMP_temperature;BMP_pressure;BME280_temperature;BME280_humidity;BME280_pressure;Samples;Min_cycle;Max_cycle;Signal;HPM_P1;HPM_P2
2021/08/26 00:06:27;;;;;;;0.40;0.40;;;17.90;99.90;;;;;;5072053;28;20190;-82
2021/08/26 00:08:54;;;;;;;0.40;0.40;;;17.90;99.90;;;;;;5066037;28;20189;-81
2021/08/26 00:11:23;;;;;;;0.83;0.73;;;17.90;99.90;;;;;;5073617;28;20228;-83
2021/08/26 00:13:51;;;;;;;0.53;0.53;;;17.90;99.90;;;;;;5069151;28;20211;-82
2021/08/26 00:16:26;;;;;;;0.30;0.30;;;18.00;99.90;;;;;;5073361;28;20264;-83
2021/08/26 00:18:52;;;;;;;0.53;0.50;;;18.00;99.90;;;;;;5064781;28;20204;-82
2021/08/26 00:21:18;;;;;;;0.77;0.77;;;18.00;99.90;;;;;;5071595;28;20208;-83
2021/08/26 00:23:44;;;;;;;0.63;0.63;;;17.90;99.90;;;;;;5071304;28;20177;-82
2021/08/26 00:26:11;;;;;;;0.40;0.40;;;18.00;99.90;;;;;;5072633;28;20212;-83
2021/08/26 00:28:37;;;;;;;0.77;0.67;;;18.00;99.90;;;;;;5061026;28;20217;-81
2021/08/26 00:31:03;;;;;;;0.80;0.80;;;18.00;99.90;;;;;;5071504;28;20700;-82
2021/08/26 00:33:29;;;;;;;0.20;0.20;;;18.00;99.90;;;;;;5065799;28;20181;-83
2021/08/26 00:35:57;;;;;;;0.73;0.73;;;18.00;99.90;;;;;;5063902;28;20532;-82
2021/08/26 00:38:23;;;;;;;0.47;0.47;;;18.00;99.90;;;;;;5072994;28;20173;-83
2021/08/26 00:40:48;;;;;;;0.73;0.70;;;18.00;99.90;;;;;;5071058;28;20776;-83
2021/08/26 00:43:14;;;;;;;6.33;1.20;;;18.10;99.90;;;;;;5070427;28;20200;-82
2021/08/26 00:45:42;;;;;;;0.60;0.60;;;18.00;99.90;;;;;;5072637;28;20184;-83
2021/08/26 00:48:08;;;;;;;2.10;1.30;;;18.00;99.90;;;;;;5071548;28;20185;-83
2021/08/26 00:50:34;;;;;;;1.40;1.30;;;18.00;99.90;;;;;;5067819;28;20639;-82
2021/08/26 00:53:00;;;;;;;0.83;0.80;;;18.00;99.90;;;;;;5066990;28;20192;-81
2021/08/26 00:55:26;;;;;;;0.93;0.80;;;18.00;99.90;;;;;;5072004;28;20188;-82
2021/08/26 00:57:52;;;;;;;1.53;0.90;;;17.90;99.90;;;;;;5051892;28;20181;-82
2021/08/26 01:00:18;;;;;;;0.73;0.60;;;17.90;99.90;;;;;;5063017;28;20733;-83
2021/08/26 01:02:52;;;;;;;0.23;0.23;;;17.90;99.90;;;;;;5071088;28;20192;-82
2021/08/26 01:05:25;;;;;;;1.50;0.93;;;17.90;99.90;;;;;;5068468;28;20356;-82
2021/08/26 01:08:02;;;;;;;1.07;0.97;;;17.90;99.90;;;;;;5074853;28;20528;-83
2021/08/26 01:10:30;;;;;;;1.50;0.53;;;17.90;99.90;;;;;;5066754;28;20218;-82
2021/08/26 01:12:58;;;;;;;0.77;0.77;;;17.90;99.90;;;;;;5073472;28;20218;-83
2021/08/26 01:15:26;;;;;;;0.40;0.40;;;17.90;99.90;;;;;;5067006;28;20200;-82
2021/08/26 01:17:52;;;;;;;0.70;0.70;;;17.90;99.90;;;;;;5073845;28;20184;-82
2021/08/26 01:20:18;;;;;;;1.00;0.80;;;17.90;99.90;;;;;;5067661;28;20190;-82
2021/08/26 01:22:44;;;;;;;0.53;0.40;;;17.80;99.90;;;;;;5073369;28;20192;-80
2021/08/26 01:25:15;;;;;;;0.23;0.23;;;17.80;99.90;;;;;;5061367;28;20692;-82
2021/08/26 01:27:46;;;;;;;0.50;0.50;;;17.70;99.90;;;;;;5072471;28;20196;-82
2021/08/26 01:30:16;;;;;;;0.80;0.60;;;17.80;99.90;;;;;;5071373;28;20291;-83
2021/08/26 01:32:43;;;;;;;1.63;0.90;;;17.80;99.90;;;;;;5070989;28;20185;-85
2021/08/26 01:35:10;;;;;;;0.43;0.43;;;17.90;99.90;;;;;;5074211;28;20184;-83
2021/08/26 01:37:38;;;;;;;1.07;0.60;;;17.90;99.90;;;;;;5074240;28;20214;-82
2021/08/26 01:40:05;;;;;;;0.93;0.50;;;17.90;99.90;;;;;;5075164;28;20259;-82
2021/08/26 01:42:30;;;;;;;0.73;0.73;;;17.90;99.90;;;;;;5069111;28;20216;-83
2021/08/26 01:44:57;;;;;;;0.93;0.77;;;17.90;99.90;;;;;;5069574;28;20241;-83
2021/08/26 01:47:23;;;;;;;0.87;0.77;;;17.90;99.90;;;;;;5072281;28;20322;-83
2021/08/26 01:49:51;;;;;;;0.90;0.60;;;17.90;99.90;;;;;;5060228;28;20189;-82
2021/08/26 01:52:21;;;;;;;0.30;0.30;;;17.80;99.90;;;;;;5067767;28;20288;-82
2021/08/26 01:54:55;;;;;;;0.70;0.70;;;17.90;99.90;;;;;;5072564;28;20181;-82
2021/08/26 01:57:21;;;;;;;0.40;0.40;;;17.90;99.90;;;;;;5071906;28;20209;-82
2021/08/26 01:59:47;;;;;;;0.33;0.30;;;17.90;99.90;;;;;;5071096;28;20187;-82
2021/08/26 02:02:13;;;;;;;0.80;0.50;;;18.00;99.90;;;;;;5072754;28;20233;-83
2021/08/26 02:04:39;;;;;;;0.83;0.47;;;18.00;99.90;;;;;;5072504;28;20193;-83
2021/08/26 02:07:05;;;;;;;0.53;0.50;;;17.90;99.90;;;;;;5074230;28;20181;-83
2021/08/26 02:09:30;;;;;;;2.00;0.47;;;17.80;99.90;;;;;;5065828;28;20195;-83
2021/08/26 02:11:56;;;;;;;0.40;0.40;;;17.90;99.90;;;;;;5070892;28;20255;-83
2021/08/26 02:14:22;;;;;;;0.80;0.80;;;17.90;99.90;;;;;;5069961;28;20236;-82
2021/08/26 02:16:47;;;;;;;4.57;0.80;;;17.80;99.90;;;;;;5064688;28;20243;-81
2021/08/26 02:19:13;;;;;;;0.83;0.47;;;17.90;99.90;;;;;;5072871;28;20225;-83
2021/08/26 02:21:38;;;;;;;0.50;0.50;;;17.90;99.90;;;;;;5068222;28;20204;-83
2021/08/26 02:24:04;;;;;;;0.93;0.93;;;18.00;99.90;;;;;;5072700;28;20189;-82
2021/08/26 02:26:31;;;;;;;0.73;0.73;;;18.00;99.90;;;;;;5068937;28;20216;-83
2021/08/26 02:28:56;;;;;;;1.60;0.57;;;17.90;99.90;;;;;;5070555;28;20194;-83
2021/08/26 02:31:22;;;;;;;0.30;0.30;;;17.90;99.90;;;;;;5073041;28;20243;-83
2021/08/26 02:33:48;;;;;;;0.77;0.60;;;17.80;99.90;;;;;;5068722;28;20186;-82
2021/08/26 02:36:13;;;;;;;0.70;0.70;;;17.80;99.90;;;;;;5071707;28;20181;-83
2021/08/26 02:38:39;;;;;;;1.80;0.67;;;17.80;99.90;;;;;;5068776;28;20179;-82
2021/08/26 02:41:05;;;;;;;0.60;0.60;;;17.70;99.90;;;;;;5070374;28;20212;-83
2021/08/26 02:43:30;;;;;;;0.73;0.73;;;17.60;99.90;;;;;;5071949;28;20187;-83
2021/08/26 02:45:56;;;;;;;0.47;0.47;;;17.60;99.90;;;;;;5072493;28;20185;-82
2021/08/26 02:48:22;;;;;;;0.50;0.50;;;17.60;99.90;;;;;;5071863;28;20184;-82
2021/08/26 02:50:47;;;;;;;1.00;0.63;;;17.50;99.90;;;;;;5060178;28;20780;-82
2021/08/26 02:53:13;;;;;;;0.87;0.70;;;17.40;99.90;;;;;;5066903;28;20579;-82
2021/08/26 02:55:38;;;;;;;1.30;0.60;;;17.40;99.90;;;;;;5072259;28;20645;-81
2021/08/26 02:58:04;;;;;;;0.73;0.73;;;17.40;99.90;;;;;;5074605;28;20180;-82
2021/08/26 03:00:29;;;;;;;0.40;0.40;;;17.30;99.90;;;;;;5068664;28;20262;-85
2021/08/26 03:02:55;;;;;;;3.23;0.53;;;17.40;99.90;;;;;;5092244;28;20224;-85
2021/08/26 03:05:20;;;;;;;0.47;0.47;;;17.30;99.90;;;;;;5067767;28;20189;-81
2021/08/26 03:07:46;;;;;;;1.77;0.63;;;17.30;99.90;;;;;;5053273;28;20188;-83
2021/08/26 03:10:11;;;;;;;0.50;0.50;;;17.20;99.90;;;;;;5061352;28;20212;-83
2021/08/26 03:12:37;;;;;;;0.97;0.50;;;17.20;99.90;;;;;;5063417;28;20185;-82
2021/08/26 03:15:03;;;;;;;0.70;0.70;;;17.20;99.90;;;;;;5065130;28;20184;-82
2021/08/26 03:17:28;;;;;;;0.47;0.47;;;17.20;99.90;;;;;;5062091;28;20602;-83
2021/08/26 03:19:54;;;;;;;0.30;0.30;;;17.20;99.90;;;;;;5069196;28;20185;-83
2021/08/26 03:22:19;;;;;;;0.50;0.50;;;17.20;99.90;;;;;;5057671;28;20213;-82
2021/08/26 03:24:45;;;;;;;0.57;0.57;;;17.20;99.90;;;;;;5060109;28;20272;-82
2021/08/26 03:27:11;;;;;;;0.30;0.30;;;17.30;99.90;;;;;;5067968;28;20185;-81
2021/08/26 03:29:36;;;;;;;0.30;0.30;;;17.20;99.90;;;;;;5061609;28;20199;-82
2021/08/26 03:32:02;;;;;;;1.30;0.43;;;17.10;99.90;;;;;;5061695;28;20209;-83
2021/08/26 03:34:27;;;;;;;1.03;0.47;;;17.20;99.90;;;;;;5073747;28;20256;-81
2021/08/26 03:36:53;;;;;;;0.50;0.50;;;17.20;99.90;;;;;;5070852;28;20178;-82
2021/08/26 03:39:18;;;;;;;0.77;0.77;;;17.20;99.90;;;;;;5070572;28;20524;-82
2021/08/26 03:41:44;;;;;;;0.30;0.30;;;17.10;99.90;;;;;;5064270;28;20680;-82
2021/08/26 03:44:10;;;;;;;0.40;0.40;;;17.20;99.90;;;;;;5068045;28;20272;-82
2021/08/26 03:46:35;;;;;;;0.20;0.20;;;17.10;99.90;;;;;;5060343;28;20185;-82
2021/08/26 03:49:01;;;;;;;0.70;0.70;;;17.10;99.90;;;;;;5068530;28;20680;-82
2021/08/26 03:51:26;;;;;;;0.17;0.17;;;17.10;99.90;;;;;;5069422;28;20304;-83
2021/08/26 03:53:52;;;;;;;0.97;0.43;;;17.20;99.90;;;;;;5070633;28;20619;-82
2021/08/26 03:56:17;;;;;;;0.53;0.53;;;17.20;99.90;;;;;;5071057;28;20200;-82
2021/08/26 03:58:43;;;;;;;0.43;0.43;;;17.20;99.90;;;;;;5094948;28;20192;-83
2021/08/26 04:01:09;;;;;;;0.40;0.40;;;17.20;99.90;;;;;;5070858;28;20220;-82
2021/08/26 04:03:34;;;;;;;0.43;0.43;;;17.10;99.90;;;;;;5069683;28;20188;-82
2021/08/26 04:06:00;;;;;;;0.50;0.50;;;17.10;99.90;;;;;;5069543;28;20669;-82
2021/08/26 04:08:26;;;;;;;0.37;0.37;;;17.10;99.90;;;;;;5063745;28;20266;-83
2021/08/26 04:10:51;;;;;;;0.30;0.30;;;17.10;99.90;;;;;;5071734;28;20562;-82
2021/08/26 04:13:17;;;;;;;0.67;0.40;;;17.20;99.90;;;;;;5064065;28;20192;-82
2021/08/26 04:15:42;;;;;;;0.47;0.47;;;17.20;99.90;;;;;;5064802;28;20209;-82
2021/08/26 04:18:08;;;;;;;0.43;0.43;;;17.20;99.90;;;;;;5065658;28;20185;-82
2021/08/26 04:20:34;;;;;;;0.20;0.20;;;17.20;99.90;;;;;;5070914;28;20239;-82
2021/08/26 04:23:02;;;;;;;0.10;0.10;;;17.20;99.90;;;;;;5064137;28;20258;-82
2021/08/26 04:25:28;;;;;;;0.53;0.30;;;17.20;99.90;;;;;;5075617;28;20211;-82
2021/08/26 04:27:53;;;;;;;0.23;0.23;;;17.10;99.90;;;;;;5065052;28;20197;-82
2021/08/26 04:30:19;;;;;;;0.23;0.23;;;17.10;99.90;;;;;;5075757;28;20216;-82
2021/08/26 04:32:44;;;;;;;0.77;0.43;;;17.00;99.90;;;;;;5073635;28;20173;-81
2021/08/26 04:35:10;;;;;;;0.23;0.23;;;17.00;99.90;;;;;;5079485;28;20184;-82
2021/08/26 04:37:35;;;;;;;0.40;0.40;;;17.00;99.90;;;;;;5073275;28;20197;-82
2021/08/26 04:40:01;;;;;;;0.37;0.37;;;17.00;99.90;;;;;;5074831;28;20245;-83
2021/08/26 04:42:27;;;;;;;0.10;0.10;;;17.00;99.90;;;;;;5077284;28;20204;-81
2021/08/26 04:44:52;;;;;;;0.50;0.50;;;17.00;99.90;;;;;;5077968;28;20731;-82
2021/08/26 04:47:18;;;;;;;0.10;0.10;;;17.10;99.90;;;;;;5070745;28;20189;-86
2021/08/26 04:49:43;;;;;;;0.10;0.10;;;17.10;99.90;;;;;;5073997;28;20187;-86
2021/08/26 04:52:09;;;;;;;0.13;0.10;;;17.10;99.90;;;;;;5069374;28;20204;-84
2021/08/26 04:54:34;;;;;;;0.20;0.20;;;17.00;99.90;;;;;;5069283;28;20174;-86
2021/08/26 04:57:00;;;;;;;0.20;0.20;;;17.10;99.90;;;;;;5072550;28;20220;-82
2021/08/26 04:59:25;;;;;;;0.10;0.10;;;17.10;99.90;;;;;;5078651;28;20183;-81
2021/08/26 05:01:51;;;;;;;0.87;0.40;;;17.00;99.90;;;;;;5070620;28;20255;-81
2021/08/26 05:04:23;;;;;;;0.20;0.20;;;17.10;99.90;;;;;;5073090;28;20185;-82
2021/08/26 05:06:49;;;;;;;0.10;0.10;;;17.00;99.90;;;;;;5069648;28;20180;-80
2021/08/26 05:09:14;;;;;;;0.20;0.20;;;17.10;99.90;;;;;;5091466;28;20216;-79
2021/08/26 05:11:40;;;;;;;0.30;0.30;;;17.10;99.90;;;;;;5065328;28;20914;-86
2021/08/26 05:14:05;;;;;;;0.50;0.50;;;17.10;99.90;;;;;;5071769;28;20601;-86
2021/08/26 05:16:31;;;;;;;0.20;0.20;;;17.20;99.90;;;;;;5098398;28;20181;-86
2021/08/26 05:18:56;;;;;;;0.30;0.30;;;17.20;99.90;;;;;;5072063;28;20204;-85
2021/08/26 05:21:22;;;;;;;0.33;0.20;;;17.20;99.90;;;;;;5073365;28;20205;-84
2021/08/26 05:23:47;;;;;;;0.47;0.40;;;17.30;99.90;;;;;;5072009;28;20569;-84
2021/08/26 05:26:13;;;;;;;1.50;0.47;;;17.40;99.90;;;;;;5066509;28;20249;-86
2021/08/26 05:28:40;;;;;;;0.40;0.40;;;17.40;99.90;;;;;;5060311;28;20197;-83
2021/08/26 05:31:06;;;;;;;0.50;0.50;;;17.50;99.90;;;;;;5072572;28;20220;-81
2021/08/26 05:33:31;;;;;;;0.23;0.23;;;17.60;99.90;;;;;;5076690;28;20195;-84
2021/08/26 05:35:58;;;;;;;0.60;0.60;;;17.60;99.90;;;;;;5061448;28;20256;-84
2021/08/26 05:38:23;;;;;;;0.30;0.30;;;17.70;99.90;;;;;;5098185;27;20196;-84
2021/08/26 05:40:49;;;;;;;1.70;0.50;;;17.60;99.90;;;;;;5063757;28;20219;-84
2021/08/26 05:43:14;;;;;;;0.50;0.50;;;17.60;99.90;;;;;;5063392;28;20188;-84
2021/08/26 05:45:40;;;;;;;0.23;0.23;;;17.50;99.90;;;;;;5059841;28;20197;-84
2021/08/26 05:48:06;;;;;;;0.23;0.23;;;17.70;99.90;;;;;;5068048;28;20197;-84
2021/08/26 05:50:31;;;;;;;0.13;0.13;;;17.70;99.90;;;;;;5056059;28;20247;-84
2021/08/26 05:52:57;;;;;;;0.20;0.20;;;17.80;99.90;;;;;;5060453;28;20186;-85
2021/08/26 05:55:22;;;;;;;0.10;0.10;;;17.70;99.90;;;;;;5068431;28;20188;-84
2021/08/26 05:57:48;;;;;;;0.20;0.20;;;17.70;99.90;;;;;;5065168;28;20177;-84
2021/08/26 06:00:14;;;;;;;0.20;0.20;;;17.50;99.90;;;;;;5064425;28;20277;-84
2021/08/26 06:02:40;;;;;;;0.10;0.10;;;17.50;99.90;;;;;;5071506;28;20255;-84
2021/08/26 06:05:06;;;;;;;0.10;0.10;;;17.50;99.90;;;;;;5061735;28;20199;-84
2021/08/26 06:07:32;;;;;;;0.10;0.10;;;17.30;99.90;;;;;;5062533;28;20211;-84
2021/08/26 06:09:57;;;;;;;0.20;0.20;;;17.30;99.90;;;;;;5067091;28;20653;-84
2021/08/26 06:12:23;;;;;;;0.10;0.10;;;17.00;99.90;;;;;;5068413;28;20212;-84
2021/08/26 06:14:48;;;;;;;0.10;0.10;;;17.00;99.90;;;;;;5062381;28;20192;-84
2021/08/26 06:17:14;;;;;;;0.13;0.13;;;17.00;99.90;;;;;;5069488;28;20549;-84
2021/08/26 06:19:40;;;;;;;0.10;0.10;;;17.20;99.90;;;;;;5057127;28;20200;-84
2021/08/26 06:22:05;;;;;;;0.40;0.40;;;17.30;99.90;;;;;;5092190;28;20365;-84
2021/08/26 06:24:31;;;;;;;0.20;0.20;;;17.30;99.90;;;;;;5061814;28;20196;-83
2021/08/26 06:27:01;;;;;;;0.20;0.20;;;17.10;99.90;;;;;;5060891;28;20192;-84
2021/08/26 06:29:26;;;;;;;1.47;0.30;;;17.20;99.90;;;;;;5069280;28;20189;-84
2021/08/26 06:31:52;;;;;;;0.30;0.20;;;17.00;99.90;;;;;;5060064;28;20577;-84
2021/08/26 06:34:18;;;;;;;0.33;0.20;;;16.90;99.90;;;;;;5058166;28;20222;-84
2021/08/26 06:36:43;;;;;;;0.30;0.30;;;16.80;99.90;;;;;;5071044;28;20188;-83
2021/08/26 06:39:09;;;;;;;0.20;0.20;;;16.70;99.90;;;;;;5060240;28;20642;-85
2021/08/26 06:41:35;;;;;;;0.37;0.30;;;16.60;99.90;;;;;;5066155;28;20204;-83
2021/08/26 06:44:00;;;;;;;0.40;0.40;;;16.90;99.90;;;;;;5060293;28;20180;-84
2021/08/26 06:46:26;;;;;;;0.47;0.40;;;17.00;99.90;;;;;;5068463;28;20213;-84
2021/08/26 06:48:52;;;;;;;0.30;0.30;;;16.80;99.90;;;;;;5053428;28;20759;-82
2021/08/26 06:51:20;;;;;;;0.23;0.23;;;16.90;99.90;;;;;;5064018;28;20267;-84
2021/08/26 06:53:46;;;;;;;0.37;0.37;;;16.70;99.90;;;;;;5059096;28;20182;-83
2021/08/26 06:56:12;;;;;;;0.70;0.30;;;16.80;99.90;;;;;;5067356;28;20246;-81
2021/08/26 06:58:37;;;;;;;1.70;0.27;;;17.00;99.90;;;;;;5068367;28;20684;-83
2021/08/26 07:01:03;;;;;;;0.40;0.37;;;16.90;99.90;;;;;;5070591;28;20215;-82
2021/08/26 07:03:30;;;;;;;0.20;0.20;;;16.80;99.90;;;;;;5074662;28;20191;-82
2021/08/26 07:05:55;;;;;;;0.30;0.30;;;16.80;99.90;;;;;;5066535;28;20192;-82
2021/08/26 07:08:21;;;;;;;0.17;0.17;;;16.90;99.90;;;;;;5068422;28;20246;-84
2021/08/26 07:10:47;;;;;;;0.87;0.87;;;17.10;99.90;;;;;;5063817;28;20209;-84
2021/08/26 07:13:12;;;;;;;0.47;0.30;;;17.20;99.90;;;;;;5070885;28;20189;-84
2021/08/26 07:15:38;;;;;;;0.30;0.20;;;17.20;99.90;;;;;;5066346;28;20190;-84
2021/08/26 07:18:05;;;;;;;0.20;0.20;;;17.20;99.90;;;;;;5069991;28;20199;-84
2021/08/26 07:20:31;;;;;;;0.37;0.37;;;17.10;99.90;;;;;;5072207;28;20204;-84
2021/08/26 07:22:56;;;;;;;0.50;0.50;;;16.80;99.90;;;;;;5066850;28;20191;-83
2021/08/26 07:25:22;;;;;;;0.20;0.20;;;17.00;99.90;;;;;;5064229;28;20204;-84
2021/08/26 07:27:48;;;;;;;0.30;0.30;;;17.10;99.90;;;;;;5070805;28;20238;-84
2021/08/26 07:30:14;;;;;;;0.30;0.30;;;16.90;99.90;;;;;;5055173;28;20204;-84
2021/08/26 07:32:39;;;;;;;0.43;0.43;;;16.60;99.90;;;;;;5067617;28;20873;-84
2021/08/26 07:35:05;;;;;;;0.40;0.30;;;16.40;99.90;;;;;;5073231;28;20639;-84
2021/08/26 07:37:31;;;;;;;0.40;0.20;;;16.50;99.90;;;;;;5067166;28;20181;-84
2021/08/26 07:39:56;;;;;;;0.60;0.60;;;16.50;99.90;;;;;;5053114;28;20208;-83
2021/08/26 07:42:22;;;;;;;0.30;0.30;;;16.40;99.90;;;;;;5066763;28;20208;-84
2021/08/26 07:44:48;;;;;;;1.60;0.90;;;16.40;99.90;;;;;;5066536;28;20272;-84
2021/08/26 07:47:13;;;;;;;0.77;0.60;;;16.50;99.90;;;;;;5063632;28;20215;-83
2021/08/26 07:49:39;;;;;;;1.60;0.23;;;16.60;99.90;;;;;;5066449;28;20206;-84
2021/08/26 07:52:05;;;;;;;0.53;0.50;;;16.40;99.90;;;;;;5062083;28;20703;-83
2021/08/26 07:54:30;;;;;;;0.23;0.23;;;16.60;99.90;;;;;;5060517;28;20278;-84
2021/08/26 07:56:57;;;;;;;0.20;0.20;;;16.70;99.90;;;;;;5069475;28;20663;-84
2021/08/26 07:59:23;;;;;;;1.07;0.97;;;16.90;99.90;;;;;;5065638;28;20557;-84
2021/08/26 08:01:48;;;;;;;4.30;0.97;;;17.10;99.90;;;;;;5062973;28;20215;-83
2021/08/26 08:04:14;;;;;;;0.37;0.30;;;17.20;99.90;;;;;;5067117;28;20210;-84
2021/08/26 08:06:39;;;;;;;0.20;0.20;;;17.20;99.90;;;;;;5062583;28;20193;-81
2021/08/26 08:09:05;;;;;;;0.30;0.30;;;17.10;99.90;;;;;;5069647;28;20191;-83
2021/08/26 08:11:31;;;;;;;0.30;0.30;;;17.00;99.90;;;;;;5058198;28;20252;-82
2021/08/26 08:13:56;;;;;;;0.10;0.10;;;17.00;99.90;;;;;;5066523;28;20200;-82
2021/08/26 08:16:22;;;;;;;0.57;0.33;;;17.10;99.90;;;;;;5070856;28;20186;-80
2021/08/26 08:18:47;;;;;;;1.00;0.27;;;17.20;99.90;;;;;;5066993;28;20237;-80
2021/08/26 08:21:13;;;;;;;1.43;0.33;;;17.40;99.90;;;;;;5070664;28;20204;-82
2021/08/26 08:23:38;;;;;;;0.13;0.13;;;17.70;99.90;;;;;;5064485;28;20192;-82
2021/08/26 08:26:10;;;;;;;0.30;0.30;;;18.00;99.90;;;;;;5071690;28;20210;-82
2021/08/26 08:28:36;;;;;;;0.20;0.20;;;18.20;99.90;;;;;;5070093;28;20212;-83
2021/08/26 08:31:01;;;;;;;0.10;0.10;;;18.30;99.90;;;;;;5064105;28;20712;-83
2021/08/26 08:33:27;;;;;;;0.73;0.43;;;18.00;99.90;;;;;;5065430;28;20185;-83
2021/08/26 08:35:52;;;;;;;0.37;0.37;;;17.80;99.90;;;;;;5067533;28;20660;-82
2021/08/26 08:38:18;;;;;;;2.00;0.40;;;17.80;99.90;;;;;;5068862;28;20185;-81
2021/08/26 08:40:46;;;;;;;1.13;1.03;;;18.00;99.90;;;;;;5073481;28;20238;-82
2021/08/26 08:43:12;;;;;;;0.30;0.30;;;18.10;99.90;;;;;;5066491;28;20292;-82
2021/08/26 08:45:38;;;;;;;0.10;0.10;;;18.60;99.90;;;;;;5070839;28;20231;-82
2021/08/26 08:48:05;;;;;;;0.20;0.20;;;18.80;99.90;;;;;;5068256;28;20244;-83
2021/08/26 08:50:31;;;;;;;0.50;0.30;;;19.00;99.90;;;;;;5069499;28;20312;-81
2021/08/26 08:52:58;;;;;;;0.20;0.20;;;18.60;99.90;;;;;;5062504;28;20173;-81
2021/08/26 08:55:23;;;;;;;0.40;0.40;;;18.60;99.90;;;;;;5060948;28;20196;-81
2021/08/26 08:57:49;;;;;;;0.10;0.10;;;19.10;99.90;;;;;;5084400;28;20177;-82
2021/08/26 09:00:17;;;;;;;0.10;0.10;;;19.60;99.90;;;;;;5061719;28;20186;-81
2021/08/26 09:02:43;;;;;;;0.43;0.43;;;19.40;99.90;;;;;;5074456;28;20278;-82
2021/08/26 09:05:09;;;;;;;0.57;0.57;;;19.80;99.90;;;;;;5059712;28;20189;-82
2021/08/26 09:07:37;;;;;;;0.20;0.20;;;19.70;99.90;;;;;;5072067;28;20217;-80
2021/08/26 09:10:04;;;;;;;0.30;0.30;;;19.90;99.90;;;;;;5064871;28;20214;-82
2021/08/26 09:12:43;;;;;;;0.73;0.40;;;20.10;99.90;;;;;;5067050;28;20703;-82
2021/08/26 09:15:15;;;;;;;0.30;0.30;;;20.40;99.90;;;;;;5072924;28;20213;-83
2021/08/26 09:17:42;;;;;;;0.10;0.10;;;20.80;99.90;;;;;;5066419;28;20536;-82
2021/08/26 09:20:10;;;;;;;0.10;0.10;;;20.70;99.90;;;;;;5069932;28;20233;-82
2021/08/26 09:22:36;;;;;;;0.37;0.37;;;20.40;99.90;;;;;;5064666;28;20208;-83
2021/08/26 09:25:03;;;;;;;0.20;0.20;;;20.50;99.90;;;;;;5072159;28;20247;-83
2021/08/26 09:27:32;;;;;;;0.10;0.10;;;20.10;99.90;;;;;;5072402;28;20187;-82
2021/08/26 09:30:05;;;;;;;0.10;0.10;;;20.10;99.90;;;;;;5069150;28;20185;-82
2021/08/26 09:32:38;;;;;;;1.13;1.13;;;20.00;99.90;;;;;;5074292;28;20276;-82
2021/08/26 09:35:14;;;;;;;0.20;0.20;;;20.10;99.90;;;;;;5061593;28;20188;-82
2021/08/26 09:37:52;;;;;;;0.10;0.10;;;20.10;99.90;;;;;;5066201;28;20177;-82
2021/08/26 09:40:20;;;;;;;0.43;0.20;;;20.40;99.90;;;;;;5069819;28;20213;-83
2021/08/26 09:43:04;;;;;;;0.13;0.13;;;20.90;99.90;;;;;;5070496;28;20181;-83
2021/08/26 09:45:36;;;;;;;0.30;0.30;;;20.90;99.90;;;;;;5070907;28;20665;-82
2021/08/26 09:48:02;;;;;;;0.30;0.30;;;20.90;99.90;;;;;;5073186;28;20197;-83
2021/08/26 09:50:38;;;;;;;0.10;0.10;;;21.00;99.90;;;;;;5064674;28;20693;-83
2021/08/26 09:53:04;;;;;;;0.20;0.20;;;21.60;99.90;;;;;;5071581;28;20192;-83
2021/08/26 09:56:03;;;;;;;0.20;0.20;;;21.60;99.90;;;;;;5068765;28;20238;-83
2021/08/26 09:58:34;;;;;;;0.50;0.50;;;21.50;99.90;;;;;;5066244;28;20204;-82
2021/08/26 10:01:11;;;;;;;0.30;0.30;;;21.20;99.90;;;;;;5062351;28;20205;-82
2021/08/26 10:03:36;;;;;;;0.10;0.10;;;21.20;99.90;;;;;;5068695;28;20213;-83
2021/08/26 10:06:02;;;;;;;1.50;0.33;;;21.50;99.90;;;;;;5070466;28;20220;-83
2021/08/26 10:08:31;;;;;;;0.20;0.20;;;21.70;99.90;;;;;;5064430;28;20251;-83
2021/08/26 10:10:58;;;;;;;0.43;0.33;;;21.00;99.90;;;;;;5072419;28;20311;-83
2021/08/26 10:13:24;;;;;;;0.20;0.20;;;20.30;99.90;;;;;;5060892;28;20182;-83
2021/08/26 10:15:50;;;;;;;0.30;0.30;;;20.60;99.90;;;;;;5065951;28;20190;-83
2021/08/26 10:18:17;;;;;;;0.30;0.20;;;21.00;99.90;;;;;;5071177;28;20716;-83
2021/08/26 10:20:43;;;;;;;0.50;0.50;;;21.10;99.90;;;;;;5065618;28;20625;-82
2021/08/26 10:23:11;;;;;;;0.10;0.10;;;20.80;99.90;;;;;;5054565;28;20189;-81
2021/08/26 10:25:40;;;;;;;0.30;0.30;;;20.40;99.90;;;;;;5065739;28;20624;-83
2021/08/26 10:28:07;;;;;;;0.20;0.20;;;20.50;99.90;;;;;;5062930;28;20194;-83
2021/08/26 10:30:35;;;;;;;0.83;0.67;;;20.60;99.90;;;;;;5059470;28;20712;-83
2021/08/26 10:33:06;;;;;;;0.17;0.17;;;20.50;99.90;;;;;;5060444;28;20184;-82
2021/08/26 10:35:33;;;;;;;0.20;0.20;;;20.40;99.90;;;;;;5066812;28;20185;-82
2021/08/26 10:37:58;;;;;;;0.40;0.37;;;20.40;99.90;;;;;;5063766;28;20178;-82
2021/08/26 10:40:33;;;;;;;0.30;0.30;;;19.50;99.90;;;;;;5068954;28;20189;-81
2021/08/26 10:42:59;;;;;;;0.30;0.30;;;19.50;99.90;;;;;;5072137;28;20552;-82
2021/08/26 10:45:29;;;;;;;0.10;0.10;;;19.30;99.90;;;;;;5061608;28;20184;-82
2021/08/26 10:47:57;;;;;;;0.10;0.10;;;19.10;99.90;;;;;;5076410;28;20562;-83
2021/08/26 10:50:29;;;;;;;0.20;0.20;;;19.50;99.90;;;;;;5061817;28;20240;-82
2021/08/26 10:52:59;;;;;;;0.37;0.37;;;19.40;99.90;;;;;;5064994;28;20181;-83
2021/08/26 10:55:34;;;;;;;1.27;0.20;;;19.40;99.90;;;;;;5068445;28;20189;-83
2021/08/26 10:58:25;;;;;;;5.77;0.40;;;19.50;99.90;;;;;;5061158;28;20647;-82
2021/08/26 11:00:59;;;;;;;0.43;0.30;;;20.10;99.90;;;;;;5063227;28;20251;-82
2021/08/26 11:03:42;;;;;;;0.20;0.20;;;20.50;99.90;;;;;;5066459;28;20184;-82
2021/08/26 11:06:16;;;;;;;0.30;0.30;;;20.40;99.90;;;;;;5063788;28;20216;-82
2021/08/26 11:08:44;;;;;;;0.20;0.20;;;20.30;99.90;;;;;;5066787;28;20235;-81
2021/08/26 11:11:29;;;;;;;0.20;0.20;;;20.30;99.90;;;;;;5067486;28;20650;-82
2021/08/26 11:14:23;;;;;;;0.20;0.20;;;20.30;99.90;;;;;;5067624;28;20178;-81
2021/08/26 11:17:02;;;;;;;0.20;0.20;;;20.30;99.90;;;;;;5066654;28;20185;-82
2021/08/26 11:19:34;;;;;;;0.10;0.10;;;20.60;99.90;;;;;;5070723;28;20180;-81
2021/08/26 11:22:03;;;;;;;0.20;0.20;;;20.50;99.90;;;;;;5061162;28;20259;-83
2021/08/26 11:24:28;;;;;;;0.50;0.50;;;20.50;99.90;;;;;;5067256;28;20202;-82
2021/08/26 11:27:19;;;;;;;0.30;0.30;;;20.30;99.90;;;;;;5073358;28;20180;-83
2021/08/26 11:29:45;;;;;;;0.37;0.30;;;20.60;99.90;;;;;;5069070;28;20641;-82
2021/08/26 11:32:12;;;;;;;0.23;0.23;;;20.50;99.90;;;;;;5067174;28;20204;-83
2021/08/26 11:34:46;;;;;;;2.00;0.30;;;20.70;99.90;;;;;;5092424;28;20272;-87
2021/08/26 11:37:15;;;;;;;0.20;0.20;;;20.50;99.90;;;;;;5069500;28;20183;-83
2021/08/26 11:39:43;;;;;;;0.40;0.40;;;20.70;99.90;;;;;;5072008;28;20184;-83
2021/08/26 11:42:21;;;;;;;0.10;0.10;;;20.80;99.90;;;;;;5060322;28;20219;-83
2021/08/26 11:45:24;;;;;;;0.20;0.20;;;20.60;99.90;;;;;;5067150;28;20185;-83
2021/08/26 11:47:50;;;;;;;0.10;0.10;;;20.90;99.90;;;;;;5021133;28;20257;-82
2021/08/26 11:50:31;;;;;;;0.23;0.23;;;21.10;99.90;;;;;;5058731;28;20689;-83
2021/08/26 11:53:08;;;;;;;0.10;0.10;;;21.20;99.90;;;;;;5065559;28;20214;-85
2021/08/26 11:55:43;;;;;;;0.20;0.20;;;21.20;99.90;;;;;;5065224;28;20185;-85
2021/08/26 11:58:11;;;;;;;1.40;0.57;;;21.50;99.90;;;;;;5065472;28;20191;-82
2021/08/26 12:00:45;;;;;;;0.57;0.20;;;21.80;99.90;;;;;;5066773;28;20212;-82
2021/08/26 12:03:10;;;;;;;0.77;0.30;;;21.60;99.90;;;;;;5053815;28;20196;-83
2021/08/26 12:05:39;;;;;;;0.20;0.20;;;21.50;99.90;;;;;;5067198;28;20186;-81
2021/08/26 12:08:06;;;;;;;2.33;0.67;;;22.00;99.90;;;;;;5065284;28;20810;-84
2021/08/26 12:10:35;;;;;;;0.20;0.20;;;21.90;99.90;;;;;;5060976;28;20221;-83
2021/08/26 12:13:12;;;;;;;0.30;0.30;;;21.40;99.90;;;;;;5066757;28;20185;-83
2021/08/26 12:15:46;;;;;;;0.20;0.20;;;21.30;99.90;;;;;;5073044;28;20254;-81
2021/08/26 12:18:22;;;;;;;0.33;0.33;;;21.30;99.90;;;;;;5066958;28;20572;-82
2021/08/26 12:21:05;;;;;;;0.20;0.20;;;21.30;99.90;;;;;;5064223;28;20231;-82
2021/08/26 12:23:33;;;;;;;0.20;0.20;;;21.30;99.90;;;;;;5069069;28;20532;-82
2021/08/26 12:26:12;;;;;;;0.27;0.27;;;21.40;99.90;;;;;;5073676;28;20295;-82
2021/08/26 12:28:41;;;;;;;0.27;0.27;;;21.30;99.90;;;;;;5056051;28;20186;-83
2021/08/26 12:31:11;;;;;;;0.20;0.20;;;21.40;99.90;;;;;;5071191;28;20238;-82
2021/08/26 12:33:40;;;;;;;0.50;0.20;;;21.40;99.90;;;;;;5071015;28;20181;-83
2021/08/26 12:36:05;;;;;;;1.07;0.47;;;21.40;99.90;;;;;;5061192;28;20568;-83
2021/08/26 12:38:39;;;;;;;0.10;0.10;;;21.10;99.90;;;;;;5074362;28;20180;-82
2021/08/26 12:41:15;;;;;;;0.10;0.10;;;21.10;99.90;;;;;;5059038;28;20216;-83
2021/08/26 12:43:42;;;;;;;0.30;0.30;;;21.00;99.90;;;;;;5074693;28;20182;-83
2021/08/26 12:46:11;;;;;;;0.20;0.20;;;21.10;99.90;;;;;;5067044;28;20623;-83
2021/08/26 12:48:39;;;;;;;0.50;0.40;;;21.10;99.90;;;;;;5078920;28;20176;-83
2021/08/26 12:51:07;;;;;;;0.20;0.20;;;21.30;99.90;;;;;;5079556;28;20303;-83
2021/08/26 12:53:33;;;;;;;0.50;0.33;;;21.20;99.90;;;;;;5070994;28;20182;-83
2021/08/26 12:56:00;;;;;;;0.30;0.30;;;20.90;99.90;;;;;;5092017;28;20180;-83